Time;durP1;ratioP1;P1;durP2;ratioP2;P2;SDS_P1;SDS_P2;PMS_P1;PMS_P2;Temp;Humidity;BMP_temperature;BMP_pressure;BME280_temperature;BME280_humidity;BME280_pressure;Samples;Min_cycle;Max_cycle;Signal;HPM_P1;HPM_P2
2021/12/19 00:00:51;;;;;;;33.13;13.98;;;;;;;8.30;100.00;103189.44;5034108;28;20137;-75
2021/12/19 00:08:50;;;;;;;29.08;10.10;;;;;;;8.27;100.00;103184.56;5032240;28;20049;-76
2021/12/19 00:11:19;;;;;;;32.28;13.52;;;;;;;8.31;100.00;103180.84;5033721;28;20053;-75
2021/12/19 00:13:45;;;;;;;20.60;7.20;;;;;;;8.21;100.00;103175.63;5036599;28;20132;-76
2021/12/19 00:16:13;;;;;;;27.38;11.65;;;;;;;8.24;100.00;103180.53;5033340;28;20050;-76
2021/12/19 00:18:43;;;;;;;26.27;11.18;;;;;;;8.28;100.00;103183.44;5041721;28;20543;-76
2021/12/19 00:21:15;;;;;;;29.90;11.90;;;;;;;8.29;100.00;103179.53;5039820;28;20140;-76
2021/12/19 00:23:42;;;;;;;25.02;10.68;;;;;;;8.30;100.00;103175.66;5042887;28;20056;-75
2021/12/19 00:26:09;;;;;;;28.08;11.90;;;;;;;8.27;100.00;103170.78;5035616;28;20235;-75
2021/12/19 00:28:36;;;;;;;22.35;8.13;;;;;;;8.28;100.00;103169.63;5037692;28;20077;-75
2021/12/19 00:31:03;;;;;;;22.05;8.85;;;;;;;8.30;100.00;103170.94;5042956;28;20049;-74
2021/12/19 00:33:30;;;;;;;21.50;8.60;;;;;;;8.27;100.00;103157.78;5040501;28;20049;-74
2021/12/19 00:35:58;;;;;;;20.90;8.40;;;;;;;8.32;100.00;103163.16;5036089;28;20050;-75
2021/12/19 00:38:25;;;;;;;23.52;8.20;;;;;;;8.33;100.00;103161.22;5035190;28;20046;-75
2021/12/19 00:40:52;;;;;;;28.45;9.25;;;;;;;8.31;100.00;103158.78;5033178;28;20053;-75
2021/12/19 00:43:36;;;;;;;21.55;9.13;;;;;;;8.27;100.00;103155.03;5037539;28;20072;-76
2021/12/19 00:46:07;;;;;;;23.98;8.55;;;;;;;8.19;100.00;103149.47;5034665;28;20136;-76
2021/12/19 00:48:37;;;;;;;22.83;8.95;;;;;;;8.19;100.00;103152.22;5027530;28;20548;-76
2021/12/19 00:51:04;;;;;;;28.30;9.90;;;;;;;8.14;100.00;103139.44;5032059;28;20192;-76
2021/12/19 00:53:31;;;;;;;24.75;9.10;;;;;;;8.16;100.00;103150.94;5033850;28;20052;-75
2021/12/19 00:55:58;;;;;;;26.48;9.77;;;;;;;8.15;100.00;103142.97;5033293;28;20518;-75
2021/12/19 00:58:25;;;;;;;26.67;9.93;;;;;;;8.10;100.00;103138.44;5031661;28;20470;-76
2021/12/19 01:00:51;;;;;;;26.00;10.75;;;;;;;8.02;100.00;103139.22;5025898;28;20053;-75
2021/12/19 01:03:18;;;;;;;32.38;11.25;;;;;;;8.06;100.00;103131.16;5032444;28;20111;-75
2021/12/19 01:05:45;;;;;;;26.92;11.15;;;;;;;8.08;100.00;103129.69;5033239;28;20076;-74
2021/12/19 01:08:12;;;;;;;28.08;11.48;;;;;;;8.09;100.00;103131.28;5040573;28;20128;-75
2021/12/19 01:10:43;;;;;;;27.38;10.60;;;;;;;8.10;100.00;103124.63;5029404;28;20053;-75
2021/12/19 01:13:11;;;;;;;27.95;11.88;;;;;;;8.10;100.00;103121.88;5039534;28;20049;-74
2021/12/19 01:15:38;;;;;;;26.40;11.32;;;;;;;8.04;100.00;103123.97;5037543;28;20524;-76
2021/12/19 01:18:05;;;;;;;28.20;11.73;;;;;;;8.09;100.00;103131.28;5036120;28;20462;-75
2021/12/19 01:20:34;;;;;;;29.83;12.05;;;;;;;8.08;100.00;103137.94;5030740;28;20053;-75
2021/12/19 01:23:02;;;;;;;25.65;11.45;;;;;;;8.11;100.00;103139.25;5030117;28;20083;-75
2021/12/19 01:25:29;;;;;;;30.60;12.52;;;;;;;8.11;100.00;103140.06;5034986;28;20080;-76
2021/12/19 01:27:56;;;;;;;28.38;11.40;;;;;;;8.12;100.00;103138.09;5033158;28;20041;-75
2021/12/19 01:30:23;;;;;;;26.92;11.32;;;;;;;8.08;100.00;103135.19;5024357;28;20520;-76
2021/12/19 01:32:50;;;;;;;25.48;10.68;;;;;;;8.11;100.00;103131.78;5032214;28;20148;-75
2021/12/19 01:35:19;;;;;;;25.77;10.18;;;;;;;8.11;100.00;103130.97;5031491;28;20057;-75
2021/12/19 01:37:46;;;;;;;26.40;10.82;;;;;;;8.13;100.00;103129.50;5029681;28;20046;-74
2021/12/19 01:40:15;;;;;;;28.60;9.98;;;;;;;8.17;100.00;103126.94;5021515;28;20041;-75
2021/12/19 01:42:44;;;;;;;32.45;12.38;;;;;;;8.20;100.00;103137.31;5033794;28;20052;-75
2021/12/19 01:45:13;;;;;;;30.15;10.52;;;;;;;8.16;100.00;103123.34;5034903;28;20076;-75
2021/12/19 01:47:41;;;;;;;30.83;12.65;;;;;;;8.19;100.00;103127.41;5035728;28;20083;-75
2021/12/19 01:50:09;;;;;;;25.30;10.65;;;;;;;8.16;100.00;103120.59;5029525;28;20045;-76
2021/12/19 01:52:36;;;;;;;24.42;8.77;;;;;;;8.09;100.00;103125.78;5039619;28;20112;-75
2021/12/19 01:55:03;;;;;;;26.70;10.60;;;;;;;8.10;100.00;103124.63;5039649;28;20084;-76
2021/12/19 01:57:30;;;;;;;28.77;9.13;;;;;;;8.10;100.00;103121.88;5031589;28;20054;-76
2021/12/19 01:59:57;;;;;;;29.67;13.70;;;;;;;8.09;100.00;103114.75;5029813;28;20037;-75
2021/12/19 02:02:23;;;;;;;18.13;6.97;;;;;;;7.98;100.00;103113.44;5029383;28;20045;-74
2021/12/19 02:04:50;;;;;;;21.63;9.68;;;;;;;7.98;100.00;103107.94;5031592;28;20045;-75
2021/12/19 02:07:17;;;;;;;28.42;10.57;;;;;;;8.03;100.00;103116.84;5034058;28;20057;-77
2021/12/19 02:09:44;;;;;;;30.50;10.98;;;;;;;8.03;100.00;103107.75;5032057;28;20091;-76
2021/12/19 02:12:12;;;;;;;28.77;12.40;;;;;;;8.03;100.00;103113.28;5022338;28;20117;-76
2021/12/19 02:14:38;;;;;;;29.17;12.10;;;;;;;8.05;100.00;103116.53;5031342;28;20136;-75
2021/12/19 02:17:05;;;;;;;27.73;10.57;;;;;;;8.00;100.00;103109.22;5031974;28;20057;-75
2021/12/19 02:19:33;;;;;;;21.08;8.85;;;;;;;8.02;100.00;103109.72;5042849;28;20053;-75
2021/12/19 02:21:59;;;;;;;21.52;8.20;;;;;;;8.02;100.00;103100.63;5029157;28;20164;-75
2021/12/19 02:24:26;;;;;;;19.85;7.75;;;;;;;8.06;100.00;103109.09;5043639;28;20136;-75
2021/12/19 02:26:52;;;;;;;16.25;5.72;;;;;;;8.03;100.00;103099.50;5031225;28;20069;-76
2021/12/19 02:29:19;;;;;;;13.43;5.50;;;;;;;7.96;100.00;103099.97;5024248;28;20156;-75
2021/12/19 02:31:46;;;;;;;16.67;6.47;;;;;;;8.03;100.00;103105.00;5026987;28;20048;-76
2021/12/19 02:34:33;;;;;;;15.88;5.63;;;;;;;8.03;100.00;103103.06;5030193;28;20552;-74
2021/12/19 02:37:10;;;;;;;13.98;4.88;;;;;;;8.03;100.00;103092.03;5033547;28;20049;-74
2021/12/19 02:39:51;;;;;;;14.77;5.72;;;;;;;8.02;100.00;103089.59;5030157;28;20063;-75
2021/12/19 02:50:44;;;;;;;13.48;4.32;;;;;;;7.88;100.00;103088.94;5029165;28;20049;-75
2021/12/19 02:53:12;;;;;;;13.90;4.22;;;;;;;7.87;100.00;103084.56;5030606;28;20054;-76
2021/12/19 02:55:39;;;;;;;14.82;4.63;;;;;;;7.89;100.00;103085.88;5050299;28;20055;-76
2021/12/19 02:58:06;;;;;;;13.13;4.95;;;;;;;7.89;100.00;103085.03;5033000;28;20077;-74
2021/12/19 03:00:32;;;;;;;17.80;5.07;;;;;;;7.86;100.00;103083.75;5038850;28;20045;-75
2021/12/19 03:02:59;;;;;;;13.57;4.00;;;;;;;7.83;100.00;103083.56;5026615;28;20106;-75
2021/12/19 03:05:26;;;;;;;16.27;5.07;;;;;;;7.83;100.00;103086.31;5036851;28;20049;-74
2021/12/19 03:07:54;;;;;;;13.88;4.53;;;;;;;7.82;100.00;103076.44;5043853;28;20057;-75
2021/12/19 03:18:32;;;;;;;14.60;4.82;;;;;;;7.77;100.00;103062.81;5032879;28;20481;-75
2021/12/19 03:20:59;;;;;;;16.60;5.40;;;;;;;7.79;100.00;103063.28;5027864;28;20152;-75
2021/12/19 03:23:26;;;;;;;16.58;5.25;;;;;;;7.75;100.00;103054.06;5037169;28;20046;-75
2021/12/19 03:25:53;;;;;;;16.45;5.43;;;;;;;7.76;100.00;103058.44;5038449;28;20055;-75
2021/12/19 03:28:19;;;;;;;14.63;4.72;;;;;;;7.73;100.00;103048.06;5029646;28;20046;-75
2021/12/19 03:30:48;;;;;;;15.95;5.28;;;;;;;7.73;100.00;103043.34;5031328;28;20056;-75
2021/12/19 03:33:15;;;;;;;14.77;4.70;;;;;;;7.71;100.00;103048.41;5025446;28;20133;-75
2021/12/19 03:35:42;;;;;;;16.55;5.18;;;;;;;7.65;100.00;103037.81;5039803;28;20153;-75
2021/12/19 03:38:12;;;;;;;15.02;4.95;;;;;;;7.64;100.00;103036.22;5041812;28;20132;-75
2021/12/19 03:40:44;;;;;;;15.45;5.25;;;;;;;7.59;100.00;103033.59;5045856;28;20172;-75
2021/12/19 03:43:15;;;;;;;16.05;5.00;;;;;;;7.59;100.00;103020.63;5039745;28;20081;-75
2021/12/19 03:45:43;;;;;;;15.80;5.22;;;;;;;7.60;100.00;103022.25;5033364;28;20080;-75
2021/12/19 03:48:12;;;;;;;15.82;4.97;;;;;;;7.59;100.00;103020.63;5043109;28;20053;-75
2021/12/19 03:50:43;;;;;;;14.05;5.05;;;;;;;7.54;100.00;103011.72;5048895;28;20055;-75
2021/12/19 03:53:11;;;;;;;15.95;5.13;;;;;;;7.51;100.00;103009.59;5031719;28;20053;-76
2021/12/19 03:55:38;;;;;;;15.50;5.07;;;;;;;7.51;100.00;103015.94;5029577;28;20088;-75
2021/12/19 03:58:05;;;;;;;15.77;4.78;;;;;;;7.46;100.00;103012.53;5029121;28;20057;-74
2021/12/19 04:00:32;;;;;;;19.30;5.47;;;;;;;7.41;100.00;103007.16;5032566;28;20120;-74
2021/12/19 04:03:04;;;;;;;14.70;4.68;;;;;;;7.46;100.00;103007.03;5039867;28;20049;-74
2021/12/19 04:05:31;;;;;;;14.05;4.55;;;;;;;7.46;100.00;103004.25;5038349;28;20045;-74
2021/12/19 04:07:59;;;;;;;14.70;4.38;;;;;;;7.43;100.00;102993.88;5039945;28;20133;-74
2021/12/19 04:10:27;;;;;;;14.27;4.22;;;;;;;7.48;100.00;103001.97;5047047;28;20059;-75
2021/12/19 04:12:55;;;;;;;19.33;5.55;;;;;;;7.51;100.00;102995.81;5039760;28;20127;-76
2021/12/19 04:15:22;;;;;;;17.95;5.40;;;;;;;7.53;100.00;102993.56;5033739;28;20081;-75
2021/12/19 04:17:49;;;;;;;16.80;4.60;;;;;;;7.51;100.00;102984.81;5043080;28;20132;-75
2021/12/19 04:20:18;;;;;;;14.82;4.60;;;;;;;7.51;100.00;102988.38;5041248;28;20041;-74
2021/12/19 04:22:49;;;;;;;14.07;4.78;;;;;;;7.54;100.00;102987.75;5044306;28;20060;-75
2021/12/19 04:25:18;;;;;;;19.00;4.93;;;;;;;7.49;100.00;102987.88;5034849;28;20051;-75
2021/12/19 04:27:44;;;;;;;18.75;5.40;;;;;;;7.51;100.00;102982.06;5045864;28;20509;-75
2021/12/19 04:30:15;;;;;;;22.77;6.00;;;;;;;7.50;100.00;102977.69;5037389;28;20421;-74
2021/12/19 04:32:46;;;;;;;18.20;5.53;;;;;;;7.55;100.00;102985.78;5038199;28;20812;-76
2021/12/19 04:35:13;;;;;;;17.15;5.57;;;;;;;7.48;100.00;102982.69;5032534;28;20512;-75
2021/12/19 04:40:36;;;;;;;18.23;5.38;;;;;;;7.38;100.00;102970.06;5026766;28;20049;-74
2021/12/19 05:15:24;;;;;;;16.52;5.57;;;;;;;7.54;100.00;102945.59;5019200;28;20395;-75
2021/12/19 05:17:52;;;;;;;13.10;4.20;;;;;;;7.49;100.00;102945.75;5032670;28;20139;-75
2021/12/19 05:20:22;;;;;;;15.32;5.45;;;;;;;7.53;100.00;102953.03;5031510;28;20046;-74
2021/12/19 05:22:51;;;;;;;15.98;4.30;;;;;;;7.52;100.00;102945.09;5036618;28;20413;-75
2021/12/19 05:25:18;;;;;;;12.75;4.45;;;;;;;7.51;100.00;102949.00;5043625;28;20417;-76
2021/12/19 05:27:53;;;;;;;15.27;3.85;;;;;;;7.52;100.00;102954.19;5036763;28;20053;-75
2021/12/19 05:30:20;;;;;;;13.88;4.20;;;;;;;7.55;100.00;102959.06;5043006;28;20049;-76
2021/12/19 05:32:49;;;;;;;17.38;4.72;;;;;;;7.55;100.00;102953.53;5032509;28;20131;-75
2021/12/19 05:35:22;;;;;;;14.48;4.95;;;;;;;7.58;100.00;102963.09;5031080;28;20087;-75
2021/12/19 05:46:05;;;;;;;16.35;5.10;;;;;;;7.38;100.00;102927.91;5045447;28;20502;-75
2021/12/19 05:48:32;;;;;;;17.35;5.43;;;;;;;7.42;100.00;102940.72;5032459;28;20367;-75
2021/12/19 05:50:58;;;;;;;10.70;3.78;;;;;;;7.39;100.00;102940.56;5031927;28;20121;-75
2021/12/19 05:53:25;;;;;;;14.02;4.30;;;;;;;7.40;100.00;102942.19;5036176;28;20431;-75
2021/12/19 05:55:52;;;;;;;16.17;4.65;;;;;;;7.35;100.00;102932.13;5032143;28;20136;-76
2021/12/19 05:58:18;;;;;;;10.18;3.58;;;;;;;7.30;100.00;102931.47;5031155;28;20048;-74
2021/12/19 06:00:45;;;;;;;12.77;3.80;;;;;;;7.29;100.00;102943.63;5030095;28;20041;-74
2021/12/19 06:03:11;;;;;;;11.52;3.30;;;;;;;7.30;100.00;102939.75;5030592;28;20739;-74
2021/12/19 06:05:38;;;;;;;10.40;3.30;;;;;;;7.30;100.00;102937.78;5030101;28;20132;-74
2021/12/19 06:08:04;;;;;;;10.40;2.80;;;;;;;7.30;100.00;102945.25;5031812;28;20049;-76
2021/12/19 06:10:31;;;;;;;9.02;3.33;;;;;;;7.28;100.00;102928.22;5032079;28;20599;-76
2021/12/19 06:12:59;;;;;;;10.00;2.97;;;;;;;7.28;100.00;102929.03;5035304;28;20481;-76
2021/12/19 06:15:26;;;;;;;8.90;2.65;;;;;;;7.26;100.00;102925.78;5032684;28;20046;-76
2021/12/19 06:17:53;;;;;;;8.02;2.72;;;;;;;7.29;100.00;102930.66;5031929;28;20136;-75
2021/12/19 06:20:21;;;;;;;8.63;2.85;;;;;;;7.30;100.00;102924.00;5036654;28;20049;-75
2021/12/19 06:22:48;;;;;;;10.70;2.80;;;;;;;7.37;100.00;102931.81;5030352;28;20498;-75
2021/12/19 06:25:15;;;;;;;8.30;2.70;;;;;;;7.38;100.00;102927.91;5029667;28;20593;-76
2021/12/19 06:27:41;;;;;;;8.48;2.65;;;;;;;7.39;100.00;102926.81;5029873;28;20843;-76
2021/12/19 06:30:10;;;;;;;6.07;1.98;;;;;;;7.35;100.00;102921.13;5021116;28;20052;-76
2021/12/19 06:32:37;;;;;;;8.13;2.65;;;;;;;7.28;100.00;102917.22;5030758;28;20049;-76
2021/12/19 06:35:07;;;;;;;6.00;2.03;;;;;;;7.22;100.00;102913.81;5030702;28;20053;-75
2021/12/19 06:37:35;;;;;;;7.88;2.45;;;;;;;7.19;100.00;102899.88;5030697;28;20164;-76
2021/12/19 06:40:04;;;;;;;7.90;1.75;;;;;;;7.12;100.00;102903.09;5020874;28;20041;-76
2021/12/19 06:42:30;;;;;;;6.80;2.65;;;;;;;7.21;100.00;102898.44;5031339;28;20140;-76
2021/12/19 06:44:57;;;;;;;7.93;2.42;;;;;;;7.20;100.00;102898.75;5037275;28;20479;-76
2021/12/19 06:47:24;;;;;;;7.93;2.22;;;;;;;7.22;100.00;102889.03;5034229;28;20489;-75
2021/12/19 06:49:51;;;;;;;7.15;1.98;;;;;;;7.30;100.00;102887.41;5041467;28;20282;-75
2021/12/19 06:52:17;;;;;;;8.32;2.53;;;;;;;7.31;100.00;102895.34;5029992;28;20045;-75
2021/12/19 06:54:44;;;;;;;5.65;2.08;;;;;;;7.27;100.00;102891.63;5030507;28;20140;-75
2021/12/19 06:57:10;;;;;;;8.43;2.78;;;;;;;7.26;100.00;102891.94;5029689;28;20060;-74
2021/12/19 06:59:37;;;;;;;9.05;3.17;;;;;;;7.28;100.00;102886.91;5029929;28;20059;-75
2021/12/19 07:02:04;;;;;;;9.00;3.15;;;;;;;7.25;100.00;102888.38;5033804;28;20099;-75
2021/12/19 07:04:30;;;;;;;10.02;3.15;;;;;;;7.25;100.00;102882.88;5042400;28;20486;-74
2021/12/19 07:06:57;;;;;;;14.00;4.32;;;;;;;7.29;100.00;102874.78;5031960;28;20059;-74
2021/12/19 07:09:23;;;;;;;11.70;3.83;;;;;;;7.26;100.00;102867.16;5023507;28;20144;-74
2021/12/19 07:11:50;;;;;;;14.20;4.15;;;;;;;7.30;100.00;102876.41;5033888;28;20140;-75
2021/12/19 07:14:16;;;;;;;9.77;3.22;;;;;;;7.32;100.00;102876.88;5039050;28;20535;-75
2021/12/19 07:16:43;;;;;;;9.45;3.33;;;;;;;7.37;100.00;102873.97;5029832;28;20111;-75
2021/12/19 07:19:09;;;;;;;9.13;3.35;;;;;;;7.36;100.00;102873.16;5029943;28;20128;-75
2021/12/19 07:21:36;;;;;;;10.98;3.55;;;;;;;7.35;100.00;102863.28;5027483;28;20128;-75
2021/12/19 07:24:03;;;;;;;13.82;4.15;;;;;;;7.34;100.00;102869.09;5029612;28;20053;-75
2021/12/19 07:26:32;;;;;;;14.63;4.57;;;;;;;7.38;100.00;102870.06;5019307;28;20133;-76
2021/12/19 07:28:58;;;;;;;16.70;5.97;;;;;;;7.38;100.00;102872.81;5014735;28;20054;-75
2021/12/19 07:31:29;;;;;;;14.98;5.68;;;;;;;7.40;100.00;102882.38;5046998;28;20068;-75
2021/12/19 07:33:57;;;;;;;14.73;4.97;;;;;;;7.37;100.00;102888.56;5026821;28;20042;-74
2021/12/19 07:36:29;;;;;;;15.73;5.47;;;;;;;7.38;100.00;102883.84;5032793;28;20080;-75
2021/12/19 07:39:04;;;;;;;14.70;4.97;;;;;;;7.35;100.00;102870.72;5034430;28;20079;-74
2021/12/19 07:41:31;;;;;;;15.95;5.93;;;;;;;7.39;100.00;102880.78;5040002;28;20692;-74
2021/12/19 07:43:58;;;;;;;13.77;5.13;;;;;;;7.39;100.00;102880.78;5033967;28;20049;-76
2021/12/19 07:46:25;;;;;;;14.40;5.82;;;;;;;7.41;100.00;102881.25;5033288;28;20059;-75
2021/12/19 07:48:51;;;;;;;16.02;5.20;;;;;;;7.42;100.00;102871.88;5032468;28;20087;-76
2021/12/19 07:51:18;;;;;;;11.77;4.03;;;;;;;7.43;100.00;102880.94;5034076;28;20128;-75
2021/12/19 07:53:44;;;;;;;5.22;1.60;;;;;;;7.36;100.00;102862.13;5053387;28;20071;-75
2021/12/19 07:56:11;;;;;;;6.97;2.33;;;;;;;7.41;100.00;102856.47;5036413;28;20129;-75
2021/12/19 07:58:38;;;;;;;8.18;2.65;;;;;;;7.46;100.00;102848.03;5033428;28;20077;-74
2021/12/19 08:01:04;;;;;;;5.63;1.75;;;;;;;7.46;100.00;102855.50;5036751;28;20045;-75
2021/12/19 08:03:31;;;;;;;10.73;2.83;;;;;;;7.49;100.00;102850.16;5049906;28;20049;-75
2021/12/19 08:05:57;;;;;;;4.40;1.73;;;;;;;7.51;100.00;102849.81;5042462;28;20053;-76
2021/12/19 08:08:27;;;;;;;10.00;2.60;;;;;;;7.50;100.00;102845.47;5032935;28;20148;-75
2021/12/19 08:13:39;;;;;;;10.68;3.03;;;;;;;7.52;100.00;102846.75;5028418;28;20063;-75
2021/12/19 08:16:05;;;;;;;9.90;2.40;;;;;;;7.51;100.00;102855.31;5037476;28;20502;-75
2021/12/19 08:18:32;;;;;;;8.63;2.58;;;;;;;7.55;100.00;102848.03;5042538;28;20068;-76
2021/12/19 08:20:58;;;;;;;6.80;2.08;;;;;;;7.55;100.00;102845.28;5033695;28;20540;-75
2021/12/19 08:23:27;;;;;;;9.95;2.72;;;;;;;7.59;100.00;102844.31;5037043;28;20065;-75
2021/12/19 08:25:54;;;;;;;6.57;2.13;;;;;;;7.64;100.00;102849.66;5034178;28;20050;-77
2021/12/19 08:28:21;;;;;;;10.75;3.03;;;;;;;7.67;100.00;102853.69;5034018;28;20429;-76
2021/12/19 08:30:47;;;;;;;12.93;2.90;;;;;;;7.66;100.00;102850.13;5032717;28;20088;-76
2021/12/19 08:33:14;;;;;;;13.73;3.33;;;;;;;7.70;100.00;102842.81;5030742;28;20084;-76
2021/12/19 08:35:41;;;;;;;8.90;2.42;;;;;;;7.74;100.00;102846.53;5029705;28;20042;-75
2021/12/19 08:38:07;;;;;;;8.88;2.60;;;;;;;7.75;100.00;102842.66;5031463;28;20064;-77
2021/12/19 08:40:34;;;;;;;7.97;2.80;;;;;;;7.76;100.00;102843.44;5029962;28;21835;-74
2021/12/19 08:43:01;;;;;;;9.85;3.33;;;;;;;7.81;100.00;102843.31;5031372;28;20061;-74
2021/12/19 08:45:28;;;;;;;9.75;3.33;;;;;;;7.79;100.00;102834.53;5030136;28;20049;-74
2021/12/19 08:47:54;;;;;;;10.30;2.72;;;;;;;7.76;100.00;102835.19;5030685;28;20121;-75
2021/12/19 08:50:23;;;;;;;15.45;3.80;;;;;;;7.80;100.00;102834.22;5030832;28;20464;-75
2021/12/19 08:52:52;;;;;;;12.48;3.45;;;;;;;7.86;100.00;102829.31;5038193;28;20132;-75
2021/12/19 08:55:20;;;;;;;12.10;4.40;;;;;;;7.85;100.00;102834.06;5044255;28;20132;-74
2021/12/19 08:57:46;;;;;;;14.50;4.65;;;;;;;7.84;100.00;102832.41;5039616;28;20076;-76
2021/12/19 09:00:14;;;;;;;11.90;3.88;;;;;;;7.87;100.00;102828.22;5037136;28;20497;-74
2021/12/19 09:02:45;;;;;;;13.52;4.60;;;;;;;7.92;100.00;102839.88;5031492;28;20069;-74
2021/12/19 09:05:13;;;;;;;13.95;4.43;;;;;;;7.97;100.00;102839.69;5037179;28;20127;-75
2021/12/19 09:07:40;;;;;;;14.93;4.38;;;;;;;7.97;100.00;102830.63;5031768;28;20148;-74
2021/12/19 09:10:08;;;;;;;14.88;4.57;;;;;;;7.93;100.00;102827.69;5030788;28;20108;-74
2021/12/19 09:12:35;;;;;;;10.50;3.45;;;;;;;7.99;100.00;102833.84;5021729;28;20136;-71
2021/12/19 09:15:06;;;;;;;13.32;4.68;;;;;;;8.03;100.00;102838.38;5028619;28;20054;-70
2021/12/19 09:17:32;;;;;;;11.00;3.83;;;;;;;8.03;100.00;102823.75;5030527;28;20049;-75
2021/12/19 09:19:59;;;;;;;15.43;4.28;;;;;;;8.07;100.00;102826.69;5032020;28;20821;-74
2021/12/19 09:22:25;;;;;;;11.65;3.88;;;;;;;8.07;100.00;102824.75;5029133;28;20069;-74
2021/12/19 09:25:12;;;;;;;10.93;3.92;;;;;;;8.05;100.00;102821.50;5024975;28;20049;-74
2021/12/19 09:27:38;;;;;;;8.20;2.63;;;;;;;8.06;100.00;102823.09;5030565;28;20102;-74
2021/12/19 09:30:06;;;;;;;7.32;2.40;;;;;;;8.07;100.00;102824.75;5030677;28;20127;-74
2021/12/19 09:32:32;;;;;;;4.97;2.13;;;;;;;8.04;100.00;102828.16;5029418;28;20099;-75
2021/12/19 09:34:59;;;;;;;6.53;2.13;;;;;;;8.02;100.00;102822.16;5033276;28;20478;-75
2021/12/19 09:37:28;;;;;;;9.23;2.33;;;;;;;7.98;100.00;102826.72;5032582;28;20498;-73
2021/12/19 09:39:54;;;;;;;5.95;2.42;;;;;;;7.99;100.00;102828.31;5030190;28;20041;-72
2021/12/19 09:42:23;;;;;;;4.38;2.03;;;;;;;7.99;100.00;102823.63;5028247;28;20636;-74
2021/12/19 09:44:50;;;;;;;5.07;2.05;;;;;;;8.07;100.00;102823.94;5027544;28;20053;-74
2021/12/19 09:47:16;;;;;;;7.25;2.55;;;;;;;8.18;100.00;102819.66;5025756;28;20589;-74
2021/12/19 09:49:43;;;;;;;6.90;2.15;;;;;;;8.29;100.00;102821.75;5026673;28;20160;-73
2021/12/19 09:52:10;;;;;;;1.25;0.85;;;;;;;8.32;100.00;102814.75;5025091;28;20168;-75
2021/12/19 09:54:39;;;;;;;3.00;1.50;;;;;;;8.34;100.00;102807.81;5039744;28;20136;-73
2021/12/19 09:57:06;;;;;;;4.63;1.92;;;;;;;8.23;100.00;102808.50;5033084;28;20087;-74
2021/12/19 09:59:33;;;;;;;5.55;1.77;;;;;;;8.29;100.00;102805.22;5024653;28;20132;-75
2021/12/19 10:01:59;;;;;;;2.60;1.30;;;;;;;8.32;100.00;102807.31;5021072;28;20406;-74
2021/12/19 10:04:43;;;;;;;3.90;1.33;;;;;;;8.29;100.00;102801.63;5017103;28;20093;-74
2021/12/19 10:07:39;;;;;;;1.25;0.60;;;;;;;8.38;100.00;102800.47;5027796;28;20049;-74
2021/12/19 10:10:13;;;;;;;2.05;1.17;;;;;;;8.51;100.00;102802.19;5043704;28;20144;-75
2021/12/19 10:15:18;;;;;;;6.35;2.00;;;;;;;8.70;100.00;102797.03;5029383;28;20053;-76
2021/12/19 10:17:47;;;;;;;8.00;1.50;;;;;;;8.94;100.00;102799.16;5028127;28;20081;-74
2021/12/19 10:20:16;;;;;;;3.90;1.50;;;;;;;9.02;100.00;102795.50;5024106;28;20069;-73
2021/12/19 10:22:46;;;;;;;2.80;1.33;;;;;;;9.23;100.00;102779.72;5025522;28;20191;-74
2021/12/19 10:25:21;;;;;;;2.53;1.00;;;;;;;9.39;100.00;102775.97;5025253;28;20474;-74
2021/12/19 10:27:49;;;;;;;3.90;1.65;;;;;;;9.39;100.00;102772.44;5026558;28;20801;-75
2021/12/19 10:30:27;;;;;;;2.05;1.10;;;;;;;9.27;100.00;102778.72;5033804;28;20056;-74
2021/12/19 10:32:54;;;;;;;2.58;1.00;;;;;;;9.17;100.00;102781.06;5028430;28;20054;-74
2021/12/19 10:35:34;;;;;;;2.85;1.00;;;;;;;9.13;100.00;102761.63;5024351;28;20454;-75
2021/12/19 10:38:03;;;;;;;0.50;0.50;;;;;;;8.94;100.00;102760.50;5019358;28;20052;-75
2021/12/19 10:40:30;;;;;;;2.60;1.25;;;;;;;9.01;100.00;102767.06;5024365;28;20060;-74
2021/12/19 10:43:01;;;;;;;1.40;1.00;;;;;;;8.96;100.00;102755.44;5030580;28;20045;-74
2021/12/19 10:45:44;;;;;;;2.35;1.00;;;;;;;9.06;100.00;102755.00;5028728;28;20057;-75
2021/12/19 10:48:13;;;;;;;1.17;0.68;;;;;;;9.10;100.00;102754.00;5027846;28;20578;-74
2021/12/19 10:50:45;;;;;;;2.78;1.20;;;;;;;9.16;100.00;102749.06;5025222;28;20064;-75
2021/12/19 10:53:13;;;;;;;3.58;1.10;;;;;;;9.20;100.00;102738.97;5027164;28;20053;-74
2021/12/19 10:55:40;;;;;;;5.45;1.27;;;;;;;9.24;100.00;102740.72;5024355;28;20103;-76
2021/12/19 10:58:23;;;;;;;5.78;1.65;;;;;;;9.09;100.00;102746.06;5024495;28;20476;-75
2021/12/19 11:01:04;;;;;;;2.28;1.42;;;;;;;9.10;100.00;102740.19;5022505;28;20045;-74
2021/12/19 11:03:37;;;;;;;3.00;1.30;;;;;;;9.15;100.00;102733.66;5045146;28;20156;-75
2021/12/19 11:06:24;;;;;;;2.22;1.10;;;;;;;9.14;100.00;102735.59;5032081;28;20053;-75
2021/12/19 11:08:52;;;;;;;2.67;1.17;;;;;;;9.13;100.00;102730.41;5017222;28;20060;-74
2021/12/19 11:11:33;;;;;;;3.08;1.45;;;;;;;9.06;100.00;102725.44;5027519;28;20490;-74
2021/12/19 11:13:59;;;;;;;3.03;1.90;;;;;;;9.08;100.00;102723.16;5025381;28;20050;-75
2021/12/19 11:16:26;;;;;;;4.72;1.60;;;;;;;9.01;100.00;102713.81;5022813;28;20079;-75
2021/12/19 11:18:53;;;;;;;4.65;1.60;;;;;;;8.93;100.00;102718.25;5029571;28;20140;-74
2021/12/19 11:21:20;;;;;;;6.30;2.25;;;;;;;8.92;100.00;102716.66;5023380;28;20045;-74
2021/12/19 11:23:46;;;;;;;4.60;1.73;;;;;;;8.83;100.00;102720.59;5017039;28;20077;-74
2021/12/19 11:26:13;;;;;;;5.07;1.30;;;;;;;8.83;100.00;102707.63;5018463;28;20429;-73
2021/12/19 11:28:40;;;;;;;4.07;1.83;;;;;;;8.85;100.00;102710.03;5017597;28;20141;-75
2021/12/19 11:31:07;;;;;;;2.30;1.30;;;;;;;8.86;100.00;102706.94;5028843;28;20144;-75
2021/12/19 11:33:36;;;;;;;2.65;1.60;;;;;;;8.84;100.00;102700.16;5018275;28;20057;-73
2021/12/19 11:36:06;;;;;;;2.00;1.52;;;;;;;8.78;100.00;102691.25;5021039;28;20526;-75
2021/12/19 11:38:36;;;;;;;3.60;2.00;;;;;;;8.71;100.00;102685.47;5021014;28;20136;-73
2021/12/19 11:41:08;;;;;;;3.38;1.83;;;;;;;8.79;100.00;102690.13;5025035;28;20049;-73
2021/12/19 11:43:36;;;;;;;2.15;1.17;;;;;;;8.73;100.00;102691.47;5021279;28;20073;-74
2021/12/19 11:46:10;;;;;;;4.07;1.85;;;;;;;8.70;100.00;102689.38;5028324;28;20132;-74
2021/12/19 11:48:38;;;;;;;3.45;1.63;;;;;;;8.79;100.00;102686.53;5027051;28;20054;-74
2021/12/19 11:51:17;;;;;;;5.25;2.30;;;;;;;9.00;100.00;102682.63;5027874;28;20081;-75
2021/12/19 11:53:43;;;;;;;1.55;0.80;;;;;;;8.99;100.00;102685.72;5025574;28;20592;-74
2021/12/19 11:56:14;;;;;;;3.13;1.25;;;;;;;8.85;100.00;102671.41;5029592;28;20061;-75
2021/12/19 11:58:45;;;;;;;3.40;1.80;;;;;;;8.83;100.00;102673.69;5025019;28;20521;-77
2021/12/19 12:01:19;;;;;;;2.00;1.40;;;;;;;8.82;100.00;102667.38;5030936;28;20057;-74
2021/12/19 12:04:02;;;;;;;2.25;1.48;;;;;;;8.82;100.00;102659.09;5030489;28;20128;-74
2021/12/19 12:06:34;;;;;;;3.95;1.60;;;;;;;8.82;100.00;102666.56;5024488;28;20057;-74
2021/12/19 12:09:40;;;;;;;6.05;2.00;;;;;;;8.81;100.00;102659.44;5028512;28;20056;-74
2021/12/19 12:12:13;;;;;;;3.70;1.30;;;;;;;8.75;100.00;102656.06;5034279;28;20106;-75
2021/12/19 12:14:49;;;;;;;4.50;1.88;;;;;;;8.74;100.00;102646.16;5026724;28;20076;-75
2021/12/19 12:17:23;;;;;;;5.45;2.30;;;;;;;8.75;100.00;102649.72;5020551;28;20057;-75
2021/12/19 12:19:53;;;;;;;3.13;1.63;;;;;;;8.68;100.00;102647.53;5022700;28;20053;-75
2021/12/19 12:22:23;;;;;;;5.30;2.08;;;;;;;8.68;100.00;102642.00;5035663;28;20048;-75
2021/12/19 12:25:02;;;;;;;4.53;2.10;;;;;;;8.63;100.00;102639.44;5026178;28;20462;-74
2021/12/19 12:27:55;;;;;;;5.47;2.17;;;;;;;8.62;100.00;102625.97;5027862;28;20188;-74
2021/12/19 12:30:30;;;;;;;9.02;2.88;;;;;;;8.63;100.00;102622.88;5030318;28;20088;-74
2021/12/19 12:33:00;;;;;;;10.00;3.28;;;;;;;8.61;100.00;102614.13;5025387;28;20220;-75
2021/12/19 12:35:29;;;;;;;8.30;2.80;;;;;;;8.60;100.00;102606.22;5027699;28;20058;-75
2021/12/19 12:37:55;;;;;;;8.68;3.25;;;;;;;8.64;100.00;102610.69;5031610;28;20076;-75